createdAt,value
2022-08-17T00:00:44.030Z,71.96
2022-08-17T00:01:28.771Z,71.96
2022-08-17T00:02:28.023Z,71.86
2022-08-17T00:03:28.334Z,72.06
2022-08-17T00:04:28.516Z,71.96
2022-08-17T00:05:28.862Z,71.76
2022-08-17T00:06:29.130Z,71.62
2022-08-17T00:07:29.438Z,71.73
2022-08-17T00:08:29.750Z,71.53
2022-08-17T00:09:30.000Z,71.33
2022-08-17T00:10:30.306Z,71.42
2022-08-17T00:11:30.544Z,71.33
2022-08-17T00:12:44.422Z,71.12
2022-08-17T00:13:32.117Z,71.42
2022-08-17T00:14:31.425Z,71.23
2022-08-17T00:15:31.726Z,71.42
2022-08-17T00:16:56.374Z,71.42
2022-08-17T00:17:33.289Z,71.73
2022-08-17T00:19:01.662Z,71.66
2022-08-17T00:19:33.888Z,72.36
2022-08-17T00:20:34.816Z,71.76
2022-08-17T00:22:29.530Z,71.86
2022-08-17T00:22:36.719Z,72.56
2022-08-17T00:23:35.008Z,72.66
2022-08-17T00:24:34.317Z,72.16
2022-08-17T00:25:34.631Z,73.76
2022-08-17T00:26:44.778Z,73.16
2022-08-17T00:27:36.201Z,72.26
2022-08-17T00:28:35.536Z,72.56
2022-08-17T00:29:35.777Z,72.16
2022-08-17T00:30:51.284Z,72.06
2022-08-17T00:31:37.341Z,71.86
2022-08-17T00:33:10.814Z,71.46
2022-08-17T00:33:37.941Z,71.46
2022-08-17T00:34:37.260Z,71.56
2022-08-17T00:35:37.572Z,71.16
2022-08-17T00:36:37.851Z,71.06
2022-08-17T00:37:38.106Z,71.06
2022-08-17T00:38:38.427Z,71.46
2022-08-17T00:39:38.761Z,72.36
2022-08-17T00:40:44.327Z,72.46
2022-08-17T00:41:42.711Z,72.56
2022-08-17T00:42:39.542Z,72.76
2022-08-17T00:43:39.869Z,72.66
2022-08-17T00:44:40.120Z,72.46
2022-08-17T00:45:40.420Z,72.96
2022-08-17T00:46:40.719Z,72.96
2022-08-17T00:47:41.014Z,72.66
2022-08-17T00:48:41.340Z,72.56
2022-08-17T00:49:41.633Z,72.66
2022-08-17T00:50:41.891Z,73.06
2022-08-17T00:51:42.195Z,72.76
2022-08-17T00:52:42.566Z,74.76
2022-08-17T00:53:42.754Z,74.06
2022-08-17T00:54:43.017Z,73.76
2022-08-17T00:55:43.302Z,73.80
2022-08-17T00:56:43.625Z,73.70
2022-08-17T00:57:43.883Z,73.60
2022-08-17T00:58:44.216Z,73.30
2022-08-17T00:59:44.463Z,73.10
2022-08-17T01:00:44.782Z,73.10
2022-08-17T01:01:45.052Z,73.00
2022-08-17T01:02:45.344Z,72.80
2022-08-17T01:03:45.670Z,73.10
2022-08-17T01:04:45.961Z,73.19
2022-08-17T01:05:46.294Z,73.90
2022-08-17T01:06:46.513Z,73.10
2022-08-17T01:07:46.812Z,72.80
2022-08-17T01:08:47.171Z,72.60
2022-08-17T01:09:47.426Z,72.96
2022-08-17T01:10:57.342Z,72.76
2022-08-17T01:11:48.915Z,72.86
2022-08-17T01:12:48.313Z,73.06
2022-08-17T01:13:48.576Z,72.66
2022-08-17T01:14:48.830Z,73.16
2022-08-17T01:15:49.130Z,73.00
2022-08-17T01:16:49.479Z,72.60
2022-08-17T01:17:49.715Z,72.60
2022-08-17T01:18:50.031Z,72.60
2022-08-17T01:19:50.408Z,72.80
2022-08-17T01:20:50.577Z,73.00
2022-08-17T01:21:50.895Z,73.00
2022-08-17T01:22:51.390Z,73.10
2022-08-17T01:23:51.488Z,73.39
2022-08-17T01:24:51.743Z,73.60
2022-08-17T01:25:52.046Z,73.39
2022-08-17T01:26:52.360Z,73.80
2022-08-17T01:27:52.658Z,73.39
2022-08-17T01:28:55.347Z,73.30
2022-08-17T01:29:53.278Z,74.20
2022-08-17T01:30:58.042Z,73.90
2022-08-17T01:31:54.804Z,74.20
2022-08-17T01:32:54.127Z,73.80
2022-08-17T01:33:54.451Z,74.30
2022-08-17T01:34:54.697Z,74.20
2022-08-17T01:35:55.017Z,74.70
2022-08-17T01:36:55.326Z,74.60
2022-08-17T01:37:55.640Z,74.70
2022-08-17T01:38:55.950Z,74.70
2022-08-17T01:39:56.279Z,74.50
2022-08-17T01:40:57.383Z,74.26
2022-08-17T01:41:56.807Z,74.06
2022-08-17T01:42:57.098Z,73.96
2022-08-17T01:43:57.434Z,73.66
2022-08-17T01:44:57.684Z,73.06
2022-08-17T01:46:03.624Z,72.66
2022-08-17T01:46:59.231Z,72.86
2022-08-17T01:47:58.510Z,72.86
2022-08-17T01:48:58.830Z,72.76
2022-08-17T01:49:59.095Z,72.86
2022-08-17T01:50:59.397Z,72.60
2022-08-17T01:51:59.661Z,73.00
2022-08-17T01:52:59.962Z,72.69
2022-08-17T01:54:00.283Z,72.60
2022-08-17T01:55:00.527Z,72.69
2022-08-17T01:56:00.851Z,72.80
2022-08-17T01:57:01.088Z,73.30
2022-08-17T01:58:01.411Z,72.80
2022-08-17T01:59:01.667Z,72.50
2022-08-17T02:00:01.989Z,72.09
2022-08-17T02:01:02.307Z,72.39
2022-08-17T02:02:02.573Z,72.50
2022-08-17T02:03:02.872Z,72.30
2022-08-17T02:04:03.212Z,72.50
2022-08-17T02:05:03.464Z,72.39
2022-08-17T02:06:03.750Z,72.33
2022-08-17T02:07:04.072Z,73.23
2022-08-17T02:08:04.337Z,74.33
2022-08-17T02:09:04.608Z,74.54
2022-08-17T02:10:04.870Z,73.53
2022-08-17T02:11:06.109Z,73.93
2022-08-17T02:12:38.057Z,74.43
2022-08-17T02:13:06.662Z,74.27
2022-08-17T02:14:05.995Z,74.97
2022-08-17T02:15:06.304Z,75.87
2022-08-17T02:16:06.562Z,74.67
2022-08-17T02:17:06.858Z,75.87
2022-08-17T02:18:07.141Z,76.28
2022-08-17T02:19:07.452Z,75.10
2022-08-17T02:20:07.742Z,74.80
2022-08-17T02:21:08.045Z,75.01
2022-08-17T02:22:08.342Z,74.80
2022-08-17T02:23:08.656Z,74.60
2022-08-17T02:24:08.975Z,74.17
2022-08-17T02:25:09.221Z,73.97
2022-08-17T02:26:09.515Z,73.86
2022-08-17T02:27:10.753Z,73.86
2022-08-17T02:28:10.076Z,74.57
2022-08-17T02:29:10.444Z,74.27
2022-08-17T02:30:59.984Z,74.47
2022-08-17T02:31:11.980Z,74.40
2022-08-17T02:32:11.307Z,74.10
2022-08-17T02:33:12.547Z,74.71
2022-08-17T02:34:11.892Z,75.01
2022-08-17T02:35:12.157Z,74.90
2022-08-17T02:36:12.465Z,75.01
2022-08-17T02:37:12.745Z,74.90
2022-08-17T02:38:13.060Z,74.90
2022-08-17T02:39:13.366Z,74.90
2022-08-17T02:40:13.683Z,74.80
2022-08-17T02:41:13.986Z,74.90
2022-08-17T02:42:14.292Z,74.71
2022-08-17T02:43:14.574Z,74.71
2022-08-17T02:44:14.874Z,74.90
2022-08-17T02:45:16.116Z,75.51
2022-08-17T02:46:15.415Z,75.60
2022-08-17T02:47:15.704Z,75.45
2022-08-17T02:48:16.006Z,75.74
2022-08-17T02:49:17.267Z,75.45
2022-08-17T02:50:16.592Z,75.74
2022-08-17T02:51:16.888Z,76.04
2022-08-17T02:52:17.166Z,76.25
2022-08-17T02:53:18.419Z,76.34
2022-08-17T02:54:40.053Z,76.45
2022-08-17T02:55:19.015Z,76.34
2022-08-17T02:56:18.325Z,76.15
2022-08-17T02:57:18.621Z,75.84
2022-08-17T02:58:18.905Z,76.04
2022-08-17T02:59:20.176Z,75.84
2022-08-17T03:00:19.481Z,75.74
2022-08-17T03:01:19.812Z,75.74
2022-08-17T03:02:20.087Z,75.84
2022-08-17T03:03:20.381Z,76.04
2022-08-17T03:04:20.670Z,75.74
2022-08-17T03:05:20.926Z,75.74
2022-08-17T03:06:21.231Z,75.74
2022-08-17T03:07:21.527Z,75.78
2022-08-17T03:08:21.829Z,75.88
2022-08-17T03:09:22.127Z,75.58
2022-08-17T03:10:22.431Z,75.58
2022-08-17T03:11:22.717Z,75.58
2022-08-17T03:12:23.007Z,75.78
2022-08-17T03:13:23.310Z,75.68
2022-08-17T03:14:25.961Z,75.68
2022-08-17T03:15:23.853Z,75.78
2022-08-17T03:16:24.154Z,75.68
2022-08-17T03:17:24.474Z,75.88
2022-08-17T03:18:26.228Z,75.68
2022-08-17T03:19:25.025Z,76.08
2022-08-17T03:20:25.309Z,76.08
2022-08-17T03:21:25.622Z,76.08
2022-08-17T03:22:37.176Z,76.18
2022-08-17T03:23:27.348Z,76.28
2022-08-17T03:24:28.901Z,76.38
2022-08-17T03:25:26.633Z,76.78
2022-08-17T03:26:29.816Z,76.92
2022-08-17T03:27:27.239Z,76.42
2022-08-17T03:28:27.520Z,76.52
2022-08-17T03:29:27.820Z,76.62
2022-08-17T03:30:28.138Z,76.32
2022-08-17T03:31:28.433Z,76.08
2022-08-17T03:32:28.723Z,76.08
2022-08-17T03:33:29.009Z,75.78
2022-08-17T03:34:29.321Z,75.68
2022-08-17T03:35:29.595Z,75.98
2022-08-17T03:36:29.886Z,76.08
2022-08-17T03:37:31.134Z,76.18
2022-08-17T03:38:30.453Z,76.08
2022-08-17T03:39:31.792Z,75.98
2022-08-17T03:40:55.305Z,75.98
2022-08-17T03:41:32.221Z,75.78
2022-08-17T03:42:32.976Z,76.48
2022-08-17T03:43:31.794Z,75.88
2022-08-17T03:44:32.125Z,75.78
2022-08-17T03:45:32.407Z,75.98
2022-08-17T03:46:34.961Z,76.08
2022-08-17T03:47:32.973Z,75.98
2022-08-17T03:48:33.298Z,76.08
2022-08-17T03:49:33.576Z,75.98
2022-08-17T03:50:33.844Z,75.98
2022-08-17T03:51:34.156Z,76.18
2022-08-17T03:52:34.424Z,76.08
2022-08-17T03:53:34.737Z,76.08
2022-08-17T03:54:35.000Z,76.28
2022-08-17T03:55:36.355Z,76.08
2022-08-17T03:56:35.534Z,76.08
2022-08-17T03:57:35.855Z,75.98
2022-08-17T03:58:36.105Z,75.78
2022-08-17T03:59:36.418Z,75.78
2022-08-17T04:00:36.693Z,75.78
2022-08-17T04:01:36.968Z,75.68
2022-08-17T04:02:37.248Z,75.78
2022-08-17T04:03:37.524Z,75.68
2022-08-17T04:04:37.857Z,75.78
2022-08-17T04:05:38.127Z,75.68
2022-08-17T04:06:38.434Z,75.58
2022-08-17T04:07:38.728Z,75.78
2022-08-17T04:08:39.035Z,75.68
2022-08-17T04:09:39.369Z,75.68
2022-08-17T04:10:45.048Z,75.68
2022-08-17T04:11:40.891Z,75.68
2022-08-17T04:12:40.213Z,75.48
2022-08-17T04:13:40.521Z,75.48
2022-08-17T04:14:52.162Z,75.48
2022-08-17T04:15:42.109Z,75.38
2022-08-17T04:16:41.435Z,75.58
2022-08-17T04:17:41.749Z,75.38
2022-08-17T04:18:42.077Z,75.78
2022-08-17T04:19:42.406Z,75.58
2022-08-17T04:20:42.687Z,75.58
2022-08-17T04:21:42.995Z,75.48
2022-08-17T04:22:43.299Z,75.58
2022-08-17T04:23:44.556Z,75.27
2022-08-17T04:24:43.908Z,75.24
2022-08-17T04:25:44.183Z,75.04
2022-08-17T04:26:53.053Z,75.08
2022-08-17T04:27:45.743Z,75.08
2022-08-17T04:28:45.077Z,75.14
2022-08-17T04:29:50.013Z,75.04
2022-08-17T04:30:46.652Z,74.94
2022-08-17T04:31:45.965Z,74.94
2022-08-17T04:33:03.639Z,75.04
2022-08-17T04:33:47.600Z,74.84
2022-08-17T04:34:46.818Z,74.84
2022-08-17T04:35:47.161Z,74.74
2022-08-17T04:36:50.115Z,74.64
2022-08-17T04:37:47.717Z,74.54
2022-08-17T04:38:48.055Z,74.44
2022-08-17T04:39:48.445Z,74.54
2022-08-17T04:40:48.708Z,74.54
2022-08-17T04:41:49.039Z,74.54
2022-08-17T04:42:49.580Z,74.34
2022-08-17T04:43:50.639Z,74.44
2022-08-17T04:44:50.022Z,74.34
2022-08-17T04:45:55.422Z,74.24
2022-08-17T04:46:51.561Z,74.34
2022-08-17T04:47:50.872Z,74.10
2022-08-17T04:48:51.203Z,74.01
2022-08-17T04:49:51.554Z,74.01
2022-08-17T04:50:51.851Z,73.90
2022-08-17T04:51:55.844Z,73.80
2022-08-17T04:52:53.428Z,73.70
2022-08-17T04:53:54.030Z,73.70
2022-08-17T04:54:53.051Z,73.60
2022-08-17T04:55:53.464Z,73.60
2022-08-17T04:56:53.602Z,73.60
2022-08-17T04:57:53.952Z,73.40
2022-08-17T04:58:54.243Z,73.60
2022-08-17T04:59:54.604Z,73.60
2022-08-17T05:00:54.838Z,73.50
2022-08-17T05:01:55.066Z,73.40
2022-08-17T05:02:55.831Z,73.20
2022-08-17T05:03:55.640Z,73.10
2022-08-17T05:04:55.981Z,73.20
2022-08-17T05:05:56.226Z,73.10
2022-08-17T05:06:56.541Z,72.97
2022-08-17T05:07:56.863Z,72.66
2022-08-17T05:08:57.208Z,72.77
2022-08-17T05:09:57.516Z,72.66
2022-08-17T05:10:57.832Z,72.36
2022-08-17T05:11:58.152Z,72.47
2022-08-17T05:12:58.496Z,72.77
2022-08-17T05:13:58.831Z,72.47
2022-08-17T05:14:59.162Z,72.56
2022-08-17T05:15:59.474Z,72.66
2022-08-17T05:16:59.786Z,72.47
2022-08-17T05:18:00.052Z,72.47
2022-08-17T05:19:00.516Z,72.47
2022-08-17T05:20:00.677Z,72.36
2022-08-17T05:21:01.009Z,72.56
2022-08-17T05:22:01.354Z,72.16
2022-08-17T05:23:01.606Z,72.27
2022-08-17T05:24:01.931Z,72.16
2022-08-17T05:25:03.138Z,72.16
2022-08-17T05:26:02.375Z,72.06
2022-08-17T05:27:06.296Z,71.96
2022-08-17T05:28:02.926Z,71.96
2022-08-17T05:29:03.157Z,71.86
2022-08-17T05:30:03.512Z,71.63
2022-08-17T05:31:03.815Z,71.63
2022-08-17T05:32:04.137Z,71.63
2022-08-17T05:33:05.421Z,71.43
2022-08-17T05:34:04.658Z,71.53
2022-08-17T05:35:04.919Z,71.23
2022-08-17T05:36:05.230Z,71.23
2022-08-17T05:37:05.589Z,71.33
2022-08-17T05:38:05.875Z,71.33
2022-08-17T05:39:06.116Z,71.12
2022-08-17T05:40:06.527Z,71.12
2022-08-17T05:41:06.730Z,71.12
2022-08-17T05:42:07.080Z,71.23
2022-08-17T05:43:07.322Z,71.00
2022-08-17T05:44:07.630Z,71.00
2022-08-17T05:45:07.880Z,71.00
2022-08-17T05:46:08.224Z,71.09
2022-08-17T05:47:09.977Z,70.89
2022-08-17T05:48:08.700Z,71.59
2022-08-17T05:49:08.962Z,71.30
2022-08-17T05:50:09.808Z,71.00
2022-08-17T05:51:09.614Z,70.69
2022-08-17T05:52:09.850Z,70.69
2022-08-17T05:53:10.085Z,70.50
2022-08-17T05:54:10.335Z,70.39
2022-08-17T05:55:10.590Z,70.86
2022-08-17T05:56:24.006Z,70.26
2022-08-17T05:57:12.182Z,70.16
2022-08-17T05:58:11.440Z,69.96
2022-08-17T05:59:11.768Z,70.06
2022-08-17T06:00:12.036Z,69.82
2022-08-17T06:01:12.379Z,69.32
2022-08-17T06:02:12.561Z,69.32
2022-08-17T06:03:12.791Z,69.23
2022-08-17T06:04:13.133Z,69.02
2022-08-17T06:05:13.412Z,69.23
2022-08-17T06:06:13.590Z,68.99
2022-08-17T06:07:13.834Z,69.19
2022-08-17T06:08:14.077Z,68.69
2022-08-17T06:09:14.305Z,68.89
2022-08-17T06:10:14.572Z,69.19
2022-08-17T06:11:14.893Z,69.59
2022-08-17T06:12:19.898Z,69.06
2022-08-17T06:13:15.471Z,68.19
2022-08-17T06:14:15.728Z,68.29
2022-08-17T06:15:16.082Z,68.26
2022-08-17T06:16:26.180Z,68.26
2022-08-17T06:17:17.681Z,68.46
2022-08-17T06:18:19.110Z,68.76
2022-08-17T06:19:17.161Z,68.93
2022-08-17T06:20:17.410Z,69.53
2022-08-17T06:21:17.646Z,70.62
2022-08-17T06:22:18.935Z,71.03
2022-08-17T06:23:18.210Z,69.13
2022-08-17T06:24:18.519Z,69.93
2022-08-17T06:25:18.754Z,69.99
2022-08-17T06:26:19.088Z,70.69
2022-08-17T06:27:19.405Z,69.49
2022-08-17T06:28:19.745Z,69.36
2022-08-17T06:29:20.074Z,68.86
2022-08-17T06:30:20.442Z,69.16
2022-08-17T06:31:20.730Z,68.66
2022-08-17T06:32:21.074Z,68.53
2022-08-17T06:33:21.405Z,67.63
2022-08-17T06:34:21.762Z,67.30
2022-08-17T06:35:22.105Z,67.20
2022-08-17T06:36:22.392Z,66.67
2022-08-17T06:37:22.725Z,67.36
2022-08-17T06:38:38.480Z,66.83
2022-08-17T06:39:24.326Z,65.74
2022-08-17T06:40:23.520Z,65.74
2022-08-17T06:41:23.815Z,65.54
2022-08-17T06:43:02.011Z,65.05
2022-08-17T06:43:25.445Z,64.94
2022-08-17T06:44:49.700Z,65.21
2022-08-17T06:45:25.976Z,65.31
2022-08-17T06:46:25.231Z,65.71
2022-08-17T06:47:28.609Z,65.08
2022-08-17T06:48:25.748Z,64.12
2022-08-17T06:49:26.072Z,64.28
2022-08-17T06:50:26.364Z,63.98
2022-08-17T06:51:26.548Z,63.56
2022-08-17T06:52:55.676Z,63.43
2022-08-17T06:53:28.193Z,63.82
2022-08-17T06:54:27.444Z,63.60
2022-08-17T06:55:27.681Z,62.80
2022-08-17T06:56:53.394Z,63.00
2022-08-17T06:57:29.283Z,62.60
2022-08-17T06:58:29.708Z,61.71
2022-08-17T06:59:35.682Z,61.61
2022-08-17T07:00:30.206Z,62.23
2022-08-17T07:01:29.488Z,62.04
2022-08-17T07:02:52.122Z,62.43
2022-08-17T07:03:30.973Z,62.93
2022-08-17T07:04:30.251Z,62.73
2022-08-17T07:05:30.592Z,62.43
2022-08-17T07:06:30.892Z,61.83
2022-08-17T07:07:32.184Z,61.71
2022-08-17T07:08:34.682Z,61.31
2022-08-17T07:09:31.712Z,61.18
2022-08-17T07:10:31.965Z,61.48
2022-08-17T07:11:32.282Z,61.71
2022-08-17T07:12:32.489Z,61.71
2022-08-17T07:13:32.764Z,61.98
2022-08-17T07:14:33.006Z,61.45
2022-08-17T07:15:33.254Z,61.62
2022-08-17T07:16:33.565Z,61.42
2022-08-17T07:17:46.600Z,62.68
2022-08-17T07:18:35.079Z,61.69
2022-08-17T07:19:34.324Z,62.15
2022-08-17T07:20:34.566Z,60.96
2022-08-17T07:21:34.879Z,60.77
2022-08-17T07:22:54.785Z,60.54
2022-08-17T07:23:36.413Z,60.14
2022-08-17T07:24:35.667Z,60.61
2022-08-17T07:25:35.922Z,60.02
2022-08-17T07:26:36.226Z,59.39
2022-08-17T07:27:36.461Z,58.37
2022-08-17T07:28:36.683Z,58.45
2022-08-17T07:29:36.934Z,57.70
2022-08-17T07:30:46.954Z,57.28
2022-08-17T07:31:38.467Z,55.40
2022-08-17T07:32:37.703Z,56.09
2022-08-17T07:33:37.947Z,55.22
2022-08-17T07:34:38.196Z,55.62
2022-08-17T07:35:41.426Z,56.02
2022-08-17T07:36:39.723Z,55.72
2022-08-17T07:37:38.961Z,56.04
2022-08-17T07:38:39.196Z,57.43
2022-08-17T07:40:14.919Z,57.43
2022-08-17T07:40:40.768Z,57.43
2022-08-17T07:41:57.406Z,57.26
2022-08-17T07:42:46.570Z,57.16
2022-08-17T07:43:41.607Z,57.16
2022-08-17T07:44:40.838Z,57.56
2022-08-17T07:45:41.097Z,58.94
2022-08-17T07:46:41.329Z,57.85
2022-08-17T07:47:41.636Z,57.68
2022-08-17T07:48:41.998Z,57.31
2022-08-17T07:49:42.240Z,58.40
2022-08-17T07:50:42.527Z,58.20
2022-08-17T07:51:43.821Z,57.81
2022-08-17T07:52:50.619Z,57.54
2022-08-17T07:53:44.351Z,57.84
2022-08-17T07:54:43.586Z,58.33
2022-08-17T07:55:43.861Z,57.71
2022-08-17T07:56:44.071Z,57.81
2022-08-17T07:57:44.320Z,57.54
2022-08-17T07:58:44.555Z,57.41
2022-08-17T07:59:44.781Z,57.54
2022-08-17T08:00:52.316Z,58.13
2022-08-17T08:01:45.389Z,58.16
2022-08-17T08:02:45.663Z,59.08
2022-08-17T08:03:45.892Z,59.18
2022-08-17T08:05:00.740Z,59.51
2022-08-17T08:05:49.998Z,60.13
2022-08-17T08:06:46.844Z,60.43
2022-08-17T08:07:47.036Z,60.93
2022-08-17T08:08:47.259Z,61.25
2022-08-17T08:09:47.614Z,61.75
2022-08-17T08:10:47.836Z,62.15
2022-08-17T08:11:48.081Z,62.84
2022-08-17T08:12:48.315Z,62.84
2022-08-17T08:13:49.595Z,62.94
2022-08-17T08:14:48.859Z,62.87
2022-08-17T08:15:54.342Z,63.17
2022-08-17T08:16:50.377Z,63.07
2022-08-17T08:17:49.747Z,63.86
2022-08-17T08:18:55.872Z,63.86
2022-08-17T08:19:51.185Z,63.40
2022-08-17T08:20:51.949Z,63.79
2022-08-17T08:21:50.728Z,64.00
2022-08-17T08:22:51.047Z,64.03
2022-08-17T08:23:51.374Z,64.42
2022-08-17T08:24:51.595Z,64.62
2022-08-17T08:25:53.555Z,64.62
2022-08-17T08:26:52.188Z,64.72
2022-08-17T08:27:52.566Z,64.52
2022-08-17T08:28:52.769Z,64.62
2022-08-17T08:29:52.995Z,64.62
2022-08-17T08:30:53.357Z,64.75
2022-08-17T08:31:53.598Z,64.75
2022-08-17T08:32:53.938Z,64.75
2022-08-17T08:33:54.198Z,65.45
2022-08-17T08:35:02.290Z,66.24
2022-08-17T08:35:55.742Z,67.63
2022-08-17T08:37:12.982Z,66.54
2022-08-17T08:37:56.268Z,67.63
2022-08-17T08:38:55.516Z,65.64
2022-08-17T08:39:55.809Z,65.94
2022-08-17T08:40:56.006Z,65.48
2022-08-17T08:41:56.357Z,65.78
2022-08-17T08:42:56.614Z,66.17
2022-08-17T08:43:56.817Z,66.67
2022-08-17T08:45:00.663Z,65.78
2022-08-17T08:45:58.338Z,65.68
2022-08-17T08:46:57.623Z,66.17
2022-08-17T08:47:57.820Z,65.98
2022-08-17T08:49:00.851Z,65.88
2022-08-17T08:50:06.036Z,65.98
2022-08-17T08:50:59.738Z,65.98
2022-08-17T08:51:58.999Z,66.08
2022-08-17T08:52:59.239Z,65.98
2022-08-17T08:53:59.493Z,65.88
2022-08-17T08:54:59.719Z,65.98
2022-08-17T08:55:59.983Z,66.97
2022-08-17T08:57:23.218Z,66.38
2022-08-17T08:58:01.555Z,66.27
2022-08-17T08:59:00.820Z,66.57
2022-08-17T09:00:01.060Z,66.61
2022-08-17T09:01:01.358Z,66.50
2022-08-17T09:02:01.676Z,67.20
2022-08-17T09:03:01.980Z,66.80
2022-08-17T09:04:18.179Z,66.91
2022-08-17T09:05:14.325Z,66.80
2022-08-17T09:06:03.825Z,67.10
2022-08-17T09:07:03.107Z,67.10
2022-08-17T09:08:03.401Z,67.30
2022-08-17T09:09:03.655Z,67.10
2022-08-17T09:10:03.894Z,67.30
2022-08-17T09:11:04.133Z,67.20
2022-08-17T09:12:04.475Z,67.30
2022-08-17T09:13:09.850Z,66.91
2022-08-17T09:14:05.925Z,67.00
2022-08-17T09:15:09.558Z,66.91
2022-08-17T09:16:06.595Z,66.80
2022-08-17T09:17:05.854Z,66.91
2022-08-17T09:19:02.230Z,66.71
2022-08-17T09:19:07.518Z,66.91
2022-08-17T09:20:06.716Z,66.71
2022-08-17T09:21:06.945Z,66.61
2022-08-17T09:22:07.202Z,67.10
2022-08-17T09:23:07.427Z,67.20
2022-08-17T09:24:07.676Z,67.50
2022-08-17T09:25:07.898Z,67.60
2022-08-17T09:26:08.148Z,67.70
2022-08-17T09:27:08.416Z,67.10
2022-08-17T09:28:08.714Z,67.00
2022-08-17T09:29:08.968Z,67.30
2022-08-17T09:30:09.220Z,68.20
2022-08-17T09:31:09.445Z,69.69
2022-08-17T09:32:09.829Z,68.79
2022-08-17T09:33:10.136Z,68.60
2022-08-17T09:34:10.377Z,70.29
2022-08-17T09:35:10.627Z,69.79
2022-08-17T09:36:10.880Z,69.49
2022-08-17T09:37:11.120Z,68.10
2022-08-17T09:38:11.469Z,67.10
2022-08-17T09:39:11.686Z,67.20
2022-08-17T09:40:12.033Z,66.91
2022-08-17T09:41:12.246Z,66.91
2022-08-17T09:42:12.496Z,67.20
2022-08-17T09:43:12.754Z,67.70
2022-08-17T09:44:23.382Z,67.00
2022-08-17T09:45:14.257Z,67.10
2022-08-17T09:46:13.516Z,67.50
2022-08-17T09:47:13.770Z,67.20
2022-08-17T09:48:14.116Z,67.20
2022-08-17T09:49:14.368Z,67.20
2022-08-17T09:50:14.608Z,67.10
2022-08-17T09:51:14.864Z,66.97
2022-08-17T09:52:15.131Z,67.47
2022-08-17T09:53:15.402Z,67.14
2022-08-17T09:54:37.942Z,66.74
2022-08-17T09:55:16.934Z,66.51
2022-08-17T09:56:16.214Z,65.88
2022-08-17T09:57:29.650Z,64.76
2022-08-17T09:58:17.719Z,64.23
2022-08-17T09:59:17.081Z,65.26
2022-08-17T10:00:17.502Z,65.33
2022-08-17T10:01:17.611Z,63.45
2022-08-17T10:02:17.884Z,62.62
2022-08-17T10:03:18.070Z,62.79
2022-08-17T10:04:20.224Z,61.80
2022-08-17T10:05:18.611Z,61.00
2022-08-17T10:06:22.284Z,59.72
2022-08-17T10:07:19.125Z,60.41
2022-08-17T10:08:21.714Z,59.92
2022-08-17T10:09:19.569Z,59.92
2022-08-17T10:10:19.822Z,60.31
2022-08-17T10:11:20.184Z,60.31
2022-08-17T10:12:20.553Z,61.16
2022-08-17T10:13:20.664Z,61.36
2022-08-17T10:14:37.457Z,61.69
2022-08-17T10:15:22.172Z,61.56
2022-08-17T10:16:21.433Z,61.26
2022-08-17T10:17:21.691Z,61.07
2022-08-17T10:18:21.926Z,61.16
2022-08-17T10:19:22.173Z,60.64
2022-08-17T10:20:22.415Z,59.84
2022-08-17T10:21:22.666Z,59.81
2022-08-17T10:22:35.137Z,59.30
2022-08-17T10:23:24.207Z,58.60
2022-08-17T10:24:23.455Z,59.00
2022-08-17T10:25:26.136Z,58.67
2022-08-17T10:26:25.107Z,57.98
2022-08-17T10:27:24.378Z,58.67
2022-08-17T10:28:28.879Z,58.84
2022-08-17T10:29:25.885Z,58.84
2022-08-17T10:30:25.142Z,57.46
2022-08-17T10:31:40.812Z,57.33
2022-08-17T10:32:26.697Z,56.81
2022-08-17T10:33:25.958Z,56.31
2022-08-17T10:34:26.194Z,56.12
2022-08-17T10:35:26.440Z,56.38
2022-08-17T10:36:26.675Z,57.24
2022-08-17T10:37:26.948Z,55.37
2022-08-17T10:38:27.156Z,56.95
2022-08-17T10:39:27.445Z,55.96
2022-08-17T10:40:27.735Z,56.73
2022-08-17T10:41:27.976Z,55.05
2022-08-17T10:42:30.854Z,54.93
2022-08-17T10:43:28.516Z,55.22
2022-08-17T10:44:38.415Z,55.32
2022-08-17T10:45:30.066Z,55.32
2022-08-17T10:46:31.389Z,56.08
2022-08-17T10:47:38.262Z,54.30
2022-08-17T10:48:30.898Z,55.29
2022-08-17T10:49:30.157Z,54.99
2022-08-17T10:50:30.387Z,55.49
2022-08-17T10:51:30.637Z,56.27
2022-08-17T10:52:30.897Z,55.62
2022-08-17T10:53:31.127Z,55.02
2022-08-17T10:54:31.370Z,54.53
2022-08-17T10:55:31.631Z,54.72
2022-08-17T10:56:31.859Z,55.71
2022-08-17T10:57:32.144Z,57.19
2022-08-17T10:58:32.359Z,55.81
2022-08-17T10:59:32.599Z,56.21
2022-08-17T11:00:32.986Z,55.41
2022-08-17T11:01:33.186Z,55.62
2022-08-17T11:02:33.433Z,56.30
2022-08-17T11:03:33.674Z,57.09
2022-08-17T11:04:33.900Z,54.82
2022-08-17T11:05:34.162Z,55.12
2022-08-17T11:06:34.423Z,55.49
2022-08-17T11:07:34.703Z,56.87
2022-08-17T11:08:34.914Z,56.37
2022-08-17T11:09:35.164Z,56.21
2022-08-17T11:10:35.433Z,56.18
2022-08-17T11:11:35.726Z,56.10
2022-08-17T11:12:35.924Z,56.70
2022-08-17T11:13:36.145Z,56.60
2022-08-17T11:14:36.398Z,57.09
2022-08-17T11:15:36.653Z,56.60
2022-08-17T11:16:36.902Z,56.70
2022-08-17T11:17:37.170Z,55.12
2022-08-17T11:18:37.422Z,56.60
2022-08-17T11:19:37.687Z,55.32
2022-08-17T11:20:37.943Z,54.40
2022-08-17T11:21:38.195Z,55.19
2022-08-17T11:22:38.453Z,54.99
2022-08-17T11:23:38.693Z,55.49
2022-08-17T11:24:38.953Z,55.85
2022-08-17T11:25:39.261Z,55.66
2022-08-17T11:26:39.497Z,55.56
2022-08-17T11:27:39.775Z,56.64
2022-08-17T11:28:39.998Z,55.56
2022-08-17T11:29:40.246Z,56.77
2022-08-17T11:30:40.527Z,57.17
2022-08-17T11:31:40.859Z,56.87
2022-08-17T11:32:47.457Z,55.16
2022-08-17T11:33:42.462Z,55.09
2022-08-17T11:34:41.769Z,55.98
2022-08-17T11:35:41.968Z,55.98
2022-08-17T11:36:42.197Z,55.79
2022-08-17T11:37:42.478Z,55.19
2022-08-17T11:38:42.790Z,55.88
2022-08-17T11:39:43.128Z,55.16
2022-08-17T11:40:43.339Z,54.28
2022-08-17T11:41:43.611Z,54.68
2022-08-17T11:42:43.906Z,55.14
2022-08-17T11:43:44.148Z,55.93
2022-08-17T11:44:44.407Z,55.90
2022-08-17T11:45:44.668Z,53.61
2022-08-17T11:46:44.950Z,53.78
2022-08-17T11:48:02.214Z,54.96
2022-08-17T11:48:46.599Z,52.89
2022-08-17T11:49:45.882Z,53.88
2022-08-17T11:50:46.142Z,55.26
2022-08-17T11:51:46.379Z,53.66
2022-08-17T11:52:47.004Z,54.86
2022-08-17T11:53:46.884Z,53.09
2022-08-17T11:54:47.132Z,52.50
2022-08-17T11:55:47.381Z,53.09
2022-08-17T11:56:47.618Z,53.22
2022-08-17T11:57:47.896Z,53.81
2022-08-17T11:58:48.142Z,53.83
2022-08-17T11:59:48.414Z,53.17
2022-08-17T12:00:48.660Z,54.74
2022-08-17T12:01:48.949Z,54.97
2022-08-17T12:02:49.184Z,55.07
2022-08-17T12:03:54.042Z,54.60
2022-08-17T12:04:50.766Z,55.12
2022-08-17T12:05:50.031Z,56.33
2022-08-17T12:06:50.304Z,57.22
2022-08-17T12:07:50.757Z,59.39
2022-08-17T12:08:50.772Z,59.00
2022-08-17T12:09:51.060Z,58.83
2022-08-17T12:10:51.338Z,57.74
2022-08-17T12:11:55.102Z,57.34
2022-08-17T12:12:52.927Z,58.23
2022-08-17T12:13:52.199Z,58.04
2022-08-17T12:15:10.064Z,58.83
2022-08-17T12:15:53.766Z,57.74
2022-08-17T12:16:53.034Z,58.14
2022-08-17T12:17:53.751Z,56.65
2022-08-17T12:18:53.631Z,57.54
2022-08-17T12:19:53.897Z,57.64
2022-08-17T12:20:56.770Z,57.54
2022-08-17T12:21:54.467Z,57.24
2022-08-17T12:22:54.767Z,58.33
2022-08-17T12:23:55.018Z,58.75
2022-08-17T12:24:55.279Z,58.95
2022-08-17T12:25:55.537Z,58.26
2022-08-17T12:26:55.800Z,57.79
2022-08-17T12:28:05.947Z,59.87
2022-08-17T12:28:57.426Z,59.97
2022-08-17T12:29:56.728Z,58.88
2022-08-17T12:30:56.967Z,58.88
2022-08-17T12:31:57.238Z,58.95
2022-08-17T12:32:57.517Z,59.94
2022-08-17T12:33:57.727Z,59.84
2022-08-17T12:34:57.997Z,59.84
2022-08-17T12:35:59.550Z,60.43
2022-08-17T12:36:58.498Z,60.36
2022-08-17T12:37:58.766Z,59.67
2022-08-17T12:38:59.028Z,59.58
2022-08-17T12:39:59.357Z,58.59
2022-08-17T12:40:59.570Z,58.98
2022-08-17T12:42:02.337Z,60.76
2022-08-17T12:43:00.158Z,58.88
2022-08-17T12:44:00.423Z,59.67
2022-08-17T12:45:00.700Z,60.27
2022-08-17T12:46:00.987Z,60.27
2022-08-17T12:47:02.164Z,60.14
2022-08-17T12:48:01.460Z,60.24
2022-08-17T12:49:01.679Z,59.45
2022-08-17T12:50:01.960Z,60.33
2022-08-17T12:51:02.176Z,60.80
2022-08-17T12:52:02.429Z,59.42
2022-08-17T12:53:02.894Z,58.73
2022-08-17T12:54:02.961Z,59.42
2022-08-17T12:55:03.211Z,59.69
2022-08-17T12:56:03.469Z,58.60